Time;durP1;ratioP1;P1;durP2;ratioP2;P2;SDS_P1;SDS_P2;PMS_P1;PMS_P2;Temp;Humidity;BMP_temperature;BMP_pressure;BME280_temperature;BME280_humidity;BME280_pressure;Samples;Min_cycle;Max_cycle;Signal;HPM_P1;HPM_P2
2023/05/01 00:01:04;;;;;;;14.18;5.75;;;9.20;99.90;;;;;;5064978;28;20056;-67
2023/05/01 00:03:31;;;;;;;13.43;5.40;;;9.10;99.90;;;;;;5019540;28;207046;-66
2023/05/01 00:06:03;;;;;;;12.68;6.18;;;9.10;99.90;;;;;;5077999;28;20055;-67
2023/05/01 00:08:30;;;;;;;12.45;5.05;;;9.10;99.90;;;;;;5025032;28;207077;-67
2023/05/01 00:11:01;;;;;;;12.88;5.97;;;9.10;99.90;;;;;;5050234;28;20057;-67
2023/05/01 00:13:27;;;;;;;13.80;5.60;;;9.00;99.90;;;;;;5013821;28;206383;-67
2023/05/01 00:15:54;;;;;;;13.68;5.70;;;9.00;99.90;;;;;;5062505;28;20053;-67
2023/05/01 00:18:20;;;;;;;14.13;5.40;;;9.00;99.90;;;;;;5020221;28;209267;-66
2023/05/01 00:20:47;;;;;;;14.00;4.97;;;9.00;99.90;;;;;;5070771;28;20043;-66
2023/05/01 00:23:13;;;;;;;13.25;5.35;;;9.00;99.90;;;;;;5016836;28;206973;-68
2023/05/01 00:25:39;;;;;;;15.35;5.38;;;8.90;99.90;;;;;;5087093;28;20048;-67
2023/05/01 00:28:05;;;;;;;11.88;5.57;;;8.90;99.90;;;;;;5064714;28;208023;-67
2023/05/01 00:30:32;;;;;;;12.90;5.88;;;8.80;99.90;;;;;;5020848;28;20083;-66
2023/05/01 00:32:59;;;;;;;13.65;5.45;;;8.90;99.90;;;;;;5082258;28;20066;-66
2023/05/01 00:35:25;;;;;;;16.70;5.80;;;8.80;99.90;;;;;;4986782;28;204885;-67
2023/05/01 00:37:51;;;;;;;14.25;5.93;;;8.80;99.90;;;;;;5055201;28;20060;-65
2023/05/01 00:40:18;;;;;;;15.18;5.30;;;8.80;99.90;;;;;;4984405;28;211381;-66
2023/05/01 00:42:44;;;;;;;12.93;5.15;;;8.80;99.90;;;;;;5057990;28;20056;-67
2023/05/01 00:45:10;;;;;;;11.07;4.93;;;8.80;99.90;;;;;;5045891;28;199928;-68
2023/05/01 00:47:37;;;;;;;12.25;5.13;;;8.70;99.90;;;;;;5076146;28;20063;-66
2023/05/01 00:50:04;;;;;;;13.20;5.13;;;8.70;99.90;;;;;;5014916;28;211461;-66
2023/05/01 00:52:30;;;;;;;13.52;5.45;;;8.70;99.90;;;;;;5071310;28;20063;-67
2023/05/01 00:54:57;;;;;;;12.52;5.15;;;8.70;99.90;;;;;;5005076;28;209711;-68
2023/05/01 00:57:24;;;;;;;15.48;5.53;;;8.70;99.90;;;;;;5075827;28;20064;-68
2023/05/01 00:59:50;;;;;;;12.43;5.45;;;8.60;99.90;;;;;;5000102;28;208975;-67
2023/05/01 01:02:16;;;;;;;13.27;5.40;;;8.60;99.90;;;;;;5075387;28;21569;-67
2023/05/01 01:04:44;;;;;;;12.45;5.57;;;8.60;99.90;;;;;;5008395;28;216110;-68
2023/05/01 01:07:20;;;;;;;11.38;4.95;;;8.60;99.90;;;;;;5078194;28;20044;-67
2023/05/01 01:09:52;;;;;;;10.55;4.63;;;8.50;99.90;;;;;;5021017;28;207493;-66
2023/05/01 01:12:37;;;;;;;11.70;4.93;;;8.50;99.90;;;;;;5079082;28;20395;-66
2023/05/01 01:15:13;;;;;;;13.60;5.07;;;8.50;99.90;;;;;;5005265;28;205285;-67
2023/05/01 01:17:56;;;;;;;15.80;5.53;;;8.40;99.90;;;;;;5072689;28;20045;-67
2023/05/01 01:20:31;;;;;;;13.68;5.15;;;8.40;99.90;;;;;;5011503;28;211468;-65
2023/05/01 01:23:25;;;;;;;13.48;5.43;;;8.30;99.90;;;;;;5079856;28;20629;-66
2023/05/01 01:26:06;;;;;;;12.35;4.97;;;8.30;99.90;;;;;;5018791;28;52854;-68
2023/05/01 01:28:39;;;;;;;11.63;5.22;;;8.30;99.90;;;;;;5043056;28;170511;-67
2023/05/01 01:31:16;;;;;;;12.25;5.07;;;8.30;99.90;;;;;;5076662;28;20052;-67
2023/05/01 01:34:03;;;;;;;14.75;5.13;;;8.20;99.90;;;;;;4998897;28;206781;-68
2023/05/01 01:36:51;;;;;;;12.23;4.97;;;8.20;99.90;;;;;;5043453;28;20055;-67
2023/05/01 01:39:45;;;;;;;13.27;5.57;;;8.20;99.90;;;;;;4977157;28;206903;-66
2023/05/01 01:42:17;;;;;;;11.93;5.03;;;8.20;99.90;;;;;;5052225;28;21061;-66
2023/05/01 01:44:50;;;;;;;15.10;5.80;;;8.20;99.90;;;;;;4993246;28;204663;-67
2023/05/01 01:47:19;;;;;;;11.23;4.80;;;8.20;99.90;;;;;;5048504;28;20057;-67
2023/05/01 01:49:51;;;;;;;14.40;5.78;;;8.20;99.90;;;;;;4989214;28;207737;-67
2023/05/01 01:52:20;;;;;;;11.85;4.88;;;8.10;99.90;;;;;;5055211;28;20064;-67
2023/05/01 01:54:51;;;;;;;12.10;5.55;;;8.10;99.90;;;;;;4982468;28;230240;-66
2023/05/01 01:57:20;;;;;;;12.20;5.18;;;8.10;99.90;;;;;;5056160;28;20124;-67
2023/05/01 01:59:48;;;;;;;11.90;5.35;;;8.10;99.90;;;;;;4993568;28;217418;-66
2023/05/01 02:02:18;;;;;;;13.75;5.50;;;8.10;99.90;;;;;;5056130;28;20106;-68
2023/05/01 02:04:46;;;;;;;14.32;5.65;;;8.10;99.90;;;;;;4992073;28;208411;-67
2023/05/01 02:07:15;;;;;;;12.25;5.65;;;8.00;99.90;;;;;;5048809;28;20056;-67
2023/05/01 02:09:43;;;;;;;14.80;5.30;;;8.00;99.90;;;;;;5000372;28;211145;-66
2023/05/01 02:12:10;;;;;;;13.63;6.20;;;8.00;99.90;;;;;;5052761;28;20053;-66
2023/05/01 02:14:38;;;;;;;12.82;5.80;;;8.00;99.90;;;;;;4994175;28;211566;-65
2023/05/01 02:17:05;;;;;;;14.73;5.53;;;8.00;99.90;;;;;;5069459;28;20052;-65
2023/05/01 02:19:32;;;;;;;15.55;5.90;;;7.90;99.90;;;;;;5010943;28;213226;-65
2023/05/01 02:22:00;;;;;;;11.13;5.10;;;7.90;99.90;;;;;;5052400;28;20071;-66
2023/05/01 02:24:28;;;;;;;13.45;5.65;;;7.90;99.90;;;;;;5015382;28;209519;-67
2023/05/01 02:27:00;;;;;;;14.15;5.93;;;7.90;99.90;;;;;;5063688;28;20063;-66
2023/05/01 02:29:26;;;;;;;;;;;7.90;99.90;;;;;;5030753;28;210910;-66
2023/05/01 02:31:52;;;;;;;15.20;5.70;;;7.80;99.90;;;;;;5065785;28;19931;-67
2023/05/01 02:34:18;;;;;;;15.15;6.30;;;7.80;99.90;;;;;;5001625;27;207671;-66
2023/05/01 02:36:44;;;;;;;13.13;5.63;;;7.70;99.90;;;;;;5063903;28;20055;-66
2023/05/01 02:39:11;;;;;;;13.52;6.38;;;7.70;99.90;;;;;;4997234;28;227537;-67
2023/05/01 02:41:38;;;;;;;13.35;6.03;;;7.70;99.90;;;;;;5058631;28;20048;-66
2023/05/01 02:44:08;;;;;;;12.07;5.93;;;7.60;99.90;;;;;;4996940;28;210912;-68
2023/05/01 02:46:36;;;;;;;13.88;6.70;;;7.60;99.90;;;;;;5060306;28;20049;-67
2023/05/01 02:49:04;;;;;;;15.88;6.40;;;7.60;99.90;;;;;;5003674;28;209868;-66
2023/05/01 02:51:31;;;;;;;16.35;6.78;;;7.50;99.90;;;;;;5061802;28;20752;-67
2023/05/01 02:53:58;;;;;;;15.23;5.95;;;7.50;99.90;;;;;;4990061;28;206378;-68
2023/05/01 02:56:26;;;;;;;12.93;6.10;;;7.50;99.90;;;;;;5050439;28;20048;-67
2023/05/01 02:58:53;;;;;;;13.77;6.22;;;7.50;99.90;;;;;;4981519;28;214593;-67
2023/05/01 03:01:19;;;;;;;13.80;6.20;;;7.40;99.90;;;;;;5060539;28;20044;-68
2023/05/01 03:03:45;;;;;;;16.63;6.65;;;7.40;99.90;;;;;;4993492;28;212753;-68
2023/05/01 03:06:14;;;;;;;11.70;5.85;;;7.30;99.90;;;;;;5065312;28;20048;-67
2023/05/01 03:08:41;;;;;;;13.55;6.78;;;7.30;99.90;;;;;;5014193;28;212839;-65
2023/05/01 03:11:07;;;;;;;15.57;6.50;;;7.30;99.90;;;;;;5070543;28;20067;-67
2023/05/01 03:13:34;;;;;;;15.20;6.28;;;7.30;99.90;;;;;;5021944;28;210847;-67
2023/05/01 03:16:00;;;;;;;14.93;6.35;;;7.20;99.90;;;;;;5070826;28;20063;-67
2023/05/01 03:18:26;;;;;;;15.98;6.32;;;7.20;99.90;;;;;;5025858;28;208442;-65
2023/05/01 03:20:55;;;;;;;17.27;6.93;;;7.10;99.90;;;;;;5067604;28;20426;-67
2023/05/01 03:23:22;;;;;;;15.23;6.80;;;7.10;99.90;;;;;;5018270;28;214225;-66
2023/05/01 03:25:49;;;;;;;15.27;6.47;;;7.00;99.90;;;;;;5069130;28;20138;-68
2023/05/01 03:28:15;;;;;;;13.50;6.20;;;7.00;99.90;;;;;;5017891;28;208253;-66
2023/05/01 03:30:41;;;;;;;13.52;6.30;;;7.00;99.90;;;;;;5063946;28;20392;-65
2023/05/01 03:33:07;;;;;;;13.63;6.25;;;6.90;99.90;;;;;;5046974;28;212261;-66
2023/05/01 03:35:33;;;;;;;13.45;6.13;;;6.90;99.90;;;;;;5058440;28;257331;-67
2023/05/01 03:37:59;;;;;;;15.20;6.57;;;6.90;99.90;;;;;;5080577;28;20057;-68
2023/05/01 03:40:25;;;;;;;15.57;6.38;;;6.80;99.90;;;;;;5012471;28;207571;-67
2023/05/01 03:42:51;;;;;;;14.63;6.53;;;6.80;99.90;;;;;;5081716;28;20482;-67
2023/05/01 03:45:17;;;;;;;16.23;7.03;;;6.70;99.90;;;;;;5011436;28;206793;-68
2023/05/01 03:47:43;;;;;;;14.73;6.55;;;6.70;99.90;;;;;;5073272;28;20059;-66
2023/05/01 03:50:10;;;;;;;13.05;7.10;;;6.60;99.90;;;;;;5031222;28;213275;-66
2023/05/01 03:52:36;;;;;;;16.80;6.72;;;6.60;99.90;;;;;;5076706;28;20049;-67
2023/05/01 03:55:02;;;;;;;15.18;7.60;;;6.50;99.90;;;;;;5013871;28;207191;-66
2023/05/01 03:57:28;;;;;;;14.32;6.82;;;6.50;99.90;;;;;;5058197;28;20049;-67
2023/05/01 03:59:54;;;;;;;15.10;7.30;;;6.50;99.90;;;;;;4989764;28;206488;-68
2023/05/01 04:02:20;;;;;;;15.55;7.03;;;6.50;99.90;;;;;;5064503;28;20053;-67
2023/05/01 04:04:46;;;;;;;13.88;6.95;;;6.50;99.90;;;;;;5035514;28;215777;-68
2023/05/01 04:07:13;;;;;;;14.98;7.07;;;6.50;99.90;;;;;;5059054;28;20547;-68
2023/05/01 04:09:39;;;;;;;15.45;7.80;;;6.40;99.90;;;;;;5005961;28;207512;-67
2023/05/01 04:12:05;;;;;;;14.52;6.80;;;6.40;99.90;;;;;;5053780;28;20045;-66
2023/05/01 04:14:31;;;;;;;12.27;7.00;;;6.40;99.90;;;;;;5025772;28;207478;-66
2023/05/01 04:16:57;;;;;;;15.20;7.22;;;6.40;99.90;;;;;;5069954;28;20377;-68
2023/05/01 04:19:23;;;;;;;16.67;7.07;;;6.40;99.90;;;;;;5000829;28;223346;-67
2023/05/01 04:21:49;;;;;;;13.93;7.43;;;6.40;99.90;;;;;;5066073;28;20059;-67
2023/05/01 04:24:15;;;;;;;18.52;7.20;;;6.50;99.90;;;;;;5020270;28;208023;-67
2023/05/01 04:26:42;;;;;;;16.42;7.68;;;6.50;99.90;;;;;;5070678;28;20040;-67
2023/05/01 04:29:08;;;;;;;16.67;7.65;;;6.50;99.90;;;;;;5026935;28;209782;-68
2023/05/01 04:31:35;;;;;;;16.15;7.38;;;6.50;99.90;;;;;;5078976;28;20052;-67
2023/05/01 04:34:01;;;;;;;16.70;7.82;;;6.60;99.90;;;;;;5028626;28;210113;-67
2023/05/01 04:36:28;;;;;;;15.20;7.05;;;6.60;99.90;;;;;;5073013;28;20048;-67
2023/05/01 04:38:54;;;;;;;14.95;7.50;;;6.70;99.90;;;;;;5013852;28;214546;-66
2023/05/01 04:41:20;;;;;;;18.90;7.80;;;6.70;99.90;;;;;;5048364;28;20044;-67
2023/05/01 04:43:46;;;;;;;15.93;7.75;;;6.80;99.90;;;;;;5015145;28;209967;-67
2023/05/01 04:46:13;;;;;;;12.98;7.30;;;6.90;99.90;;;;;;5064184;28;20052;-67
2023/05/01 04:48:39;;;;;;;14.13;7.55;;;6.90;99.90;;;;;;5029830;28;182817;-68
2023/05/01 04:51:05;;;;;;;16.33;6.90;;;6.90;99.90;;;;;;5083637;28;20051;-68
2023/05/01 04:53:31;;;;;;;16.83;7.60;;;7.00;99.90;;;;;;5018792;28;207843;-67
2023/05/01 04:55:57;;;;;;;17.67;7.53;;;7.00;99.90;;;;;;5079563;28;20569;-68
2023/05/01 04:58:23;;;;;;;15.50;7.80;;;7.10;99.90;;;;;;5003032;28;210924;-68
2023/05/01 05:00:50;;;;;;;17.05;7.88;;;7.20;99.90;;;;;;5081244;28;20051;-68
2023/05/01 05:03:17;;;;;;;15.85;7.88;;;7.30;99.90;;;;;;5011305;28;211152;-68
2023/05/01 05:05:44;;;;;;;14.65;8.10;;;7.30;99.90;;;;;;5083018;28;20064;-67
2023/05/01 05:08:10;;;;;;;16.58;7.22;;;7.40;99.90;;;;;;5027016;28;247988;-67
2023/05/01 05:10:36;;;;;;;19.05;7.78;;;7.50;99.90;;;;;;5078541;28;20059;-67
2023/05/01 05:13:03;;;;;;;15.18;7.63;;;7.60;99.90;;;;;;5065406;28;207006;-67
2023/05/01 05:15:29;;;;;;;17.55;7.63;;;7.60;99.90;;;;;;4999194;28;206936;-66
2023/05/01 05:17:55;;;;;;;15.60;7.78;;;7.70;99.90;;;;;;5072805;28;20071;-67
2023/05/01 05:20:21;;;;;;;14.75;7.30;;;7.90;99.90;;;;;;5026708;28;210245;-66
2023/05/01 05:22:47;;;;;;;16.77;7.70;;;8.00;99.90;;;;;;5073262;28;20834;-68
2023/05/01 05:25:15;;;;;;;14.57;7.30;;;8.10;99.90;;;;;;5024980;28;207527;-67
2023/05/01 05:27:41;;;;;;;17.20;7.95;;;8.10;99.90;;;;;;5081137;28;20060;-67
2023/05/01 05:30:07;;;;;;;15.18;7.50;;;8.20;99.90;;;;;;5028364;28;206317;-67
2023/05/01 05:32:33;;;;;;;16.67;7.40;;;8.20;99.90;;;;;;5066773;28;20060;-68
2023/05/01 05:35:00;;;;;;;16.08;7.97;;;8.20;99.90;;;;;;5002920;28;212755;-67
2023/05/01 05:37:26;;;;;;;13.73;7.93;;;8.30;99.90;;;;;;5059424;28;20507;-67
2023/05/01 05:39:52;;;;;;;17.33;7.75;;;8.40;99.90;;;;;;5015143;28;207597;-67
2023/05/01 05:42:18;;;;;;;15.70;7.88;;;8.60;99.90;;;;;;5061664;28;20051;-67
2023/05/01 05:44:44;;;;;;;15.82;6.95;;;8.70;99.90;;;;;;5022875;28;207356;-66
2023/05/01 05:47:10;;;;;;;14.27;6.80;;;8.90;99.90;;;;;;5064737;28;20052;-67
2023/05/01 05:49:36;;;;;;;15.00;7.43;;;9.00;99.90;;;;;;4993909;28;209511;-67
2023/05/01 05:52:02;;;;;;;15.52;7.53;;;9.30;99.90;;;;;;5047280;28;20052;-67
2023/05/01 05:54:28;;;;;;;15.20;7.55;;;9.50;99.90;;;;;;4994642;28;205863;-67
2023/05/01 05:56:54;;;;;;;15.70;6.85;;;9.70;99.90;;;;;;5056718;28;20057;-66
2023/05/01 05:59:21;;;;;;;21.73;7.35;;;9.80;99.90;;;;;;4978790;28;210497;-67
2023/05/01 06:01:47;;;;;;;13.95;6.78;;;9.90;99.90;;;;;;5050193;28;20057;-66
2023/05/01 06:04:13;;;;;;;18.63;7.45;;;9.80;99.90;;;;;;5006652;28;204805;-66
2023/05/01 06:06:39;;;;;;;17.00;7.03;;;9.90;99.90;;;;;;5061930;28;20056;-67
2023/05/01 06:09:07;;;;;;;14.13;7.00;;;10.10;99.90;;;;;;5009819;28;212912;-68
2023/05/01 06:11:33;;;;;;;13.48;6.50;;;10.30;99.90;;;;;;5061926;28;20057;-68
2023/05/01 06:14:01;;;;;;;13.27;6.75;;;10.40;99.90;;;;;;5009047;28;210866;-67
2023/05/01 06:16:27;;;;;;;12.23;6.57;;;10.50;99.90;;;;;;5041675;28;20056;-67
2023/05/01 06:18:54;;;;;;;16.73;7.20;;;10.70;99.90;;;;;;4987629;28;212212;-67
2023/05/01 06:21:20;;;;;;;14.13;6.65;;;11.00;99.90;;;;;;5046796;28;20055;-67
2023/05/01 06:23:46;;;;;;;14.52;6.32;;;11.20;99.90;;;;;;4991558;28;207457;-67
2023/05/01 06:26:12;;;;;;;14.18;6.68;;;11.20;99.90;;;;;;5039609;28;20044;-67
2023/05/01 06:28:38;;;;;;;14.73;6.82;;;11.30;99.90;;;;;;5008726;28;207192;-67
2023/05/01 06:31:04;;;;;;;11.60;6.25;;;11.40;99.90;;;;;;5088735;27;20434;-68
2023/05/01 06:33:30;;;;;;;13.80;6.47;;;11.60;99.90;;;;;;5022527;28;207621;-66
2023/05/01 06:35:58;;;;;;;18.42;7.28;;;11.80;99.90;;;;;;5100338;27;20067;-67
2023/05/01 06:38:28;;;;;;;17.38;6.68;;;11.90;99.90;;;;;;5016269;28;210704;-66
2023/05/01 06:40:54;;;;;;;12.38;5.75;;;12.20;99.90;;;;;;5031865;28;20052;-66
2023/05/01 06:43:20;;;;;;;12.25;6.57;;;12.30;99.90;;;;;;4996471;28;209184;-67
2023/05/01 06:45:46;;;;;;;12.10;6.05;;;12.50;99.90;;;;;;5063013;28;20044;-69
2023/05/01 06:48:12;;;;;;;14.00;6.33;;;12.60;99.90;;;;;;5014158;28;213224;-65
2023/05/01 06:50:38;;;;;;;12.70;5.78;;;12.70;99.90;;;;;;5049219;28;20052;-66
2023/05/01 06:53:04;;;;;;;15.70;6.45;;;12.80;99.90;;;;;;5060091;28;207561;-66
2023/05/01 06:55:32;;;;;;;13.30;5.93;;;12.90;99.90;;;;;;5008877;28;206665;-67
2023/05/01 06:57:58;;;;;;;13.25;6.07;;;13.00;99.90;;;;;;5056037;28;20894;-68
2023/05/01 07:00:24;;;;;;;15.43;6.22;;;13.10;99.90;;;;;;5008187;28;212121;-66
2023/05/01 07:02:50;;;;;;;14.27;6.40;;;13.00;99.90;;;;;;5074627;28;20052;-67
2023/05/01 07:05:17;;;;;;;12.57;5.43;;;13.10;99.90;;;;;;5004743;28;213697;-66
2023/05/01 07:07:43;;;;;;;13.13;5.82;;;13.20;99.90;;;;;;5051132;28;20052;-67
2023/05/01 07:10:09;;;;;;;13.40;5.40;;;13.30;99.90;;;;;;5006355;28;207517;-67
2023/05/01 07:12:35;;;;;;;17.38;5.90;;;13.70;99.90;;;;;;5074879;28;20055;-67
2023/05/01 07:15:02;;;;;;;16.67;5.28;;;13.90;99.90;;;;;;4978558;28;212832;-67
2023/05/01 07:17:28;;;;;;;16.85;5.68;;;14.00;99.90;;;;;;5058720;28;20045;-67
2023/05/01 07:19:54;;;;;;;12.27;5.40;;;14.10;99.90;;;;;;5012267;28;207402;-67
2023/05/01 07:22:20;;;;;;;14.38;6.00;;;14.30;99.90;;;;;;5055678;28;20045;-67
2023/05/01 07:24:47;;;;;;;15.00;5.90;;;14.60;99.90;;;;;;4991640;28;209205;-65
2023/05/01 07:27:13;;;;;;;16.75;6.05;;;14.80;99.90;;;;;;5055339;28;20049;-66
2023/05/01 07:29:39;;;;;;;12.63;5.28;;;15.00;99.90;;;;;;5006073;28;207252;-66
2023/05/01 07:32:06;;;;;;;14.68;6.07;;;15.20;99.90;;;;;;5063339;28;20052;-67
2023/05/01 07:34:32;;;;;;;11.63;5.20;;;15.50;99.90;;;;;;4987791;28;205836;-66
2023/05/01 07:36:58;;;;;;;12.90;5.22;;;15.80;99.90;;;;;;5055171;28;20056;-67
2023/05/01 07:39:25;;;;;;;12.90;5.47;;;16.30;99.90;;;;;;5005853;28;207771;-67
2023/05/01 07:41:51;;;;;;;11.07;4.60;;;16.50;99.30;;;;;;5057113;28;20056;-67
2023/05/01 07:44:17;;;;;;;13.05;4.65;;;16.50;99.60;;;;;;5000013;28;203753;-67
2023/05/01 07:46:43;;;;;;;10.73;4.60;;;16.70;98.60;;;;;;5053943;28;20055;-67
2023/05/01 07:49:09;;;;;;;11.90;5.07;;;16.70;98.50;;;;;;4995000;28;210726;-67
2023/05/01 07:51:36;;;;;;;11.43;4.10;;;16.80;98.30;;;;;;5044315;28;20044;-67
2023/05/01 07:54:03;;;;;;;11.32;4.05;;;17.00;97.80;;;;;;5011386;28;207762;-66
2023/05/01 07:56:30;;;;;;;10.15;3.70;;;16.90;97.40;;;;;;5068523;28;20064;-67
2023/05/01 07:58:56;;;;;;;13.68;4.45;;;16.80;97.60;;;;;;5016098;28;207278;-68
2023/05/01 08:01:22;;;;;;;11.60;4.10;;;16.80;97.20;;;;;;5093472;28;20052;-68
2023/05/01 08:03:48;;;;;;;12.07;3.90;;;17.00;97.20;;;;;;5018750;28;208495;-66
2023/05/01 08:06:15;;;;;;;12.85;4.32;;;17.20;97.00;;;;;;5063406;28;20052;-65
2023/05/01 08:08:41;;;;;;;10.75;3.90;;;17.40;96.60;;;;;;5005802;28;212724;-65
2023/05/01 08:11:08;;;;;;;12.32;4.40;;;17.70;96.60;;;;;;5063074;28;20049;-66
2023/05/01 08:13:34;;;;;;;10.82;4.10;;;17.90;96.80;;;;;;5000316;28;207078;-67
2023/05/01 08:16:02;;;;;;;11.77;3.60;;;18.40;96.70;;;;;;5045030;28;20048;-65
2023/05/01 08:18:29;;;;;;;9.25;3.42;;;18.90;96.50;;;;;;5001343;28;207301;-67
2023/05/01 08:20:55;;;;;;;12.00;3.75;;;19.40;95.80;;;;;;5061219;28;20056;-67
2023/05/01 08:23:23;;;;;;;12.57;3.47;;;19.50;95.00;;;;;;5004209;28;213364;-66
2023/05/01 08:25:51;;;;;;;9.73;3.13;;;19.50;94.80;;;;;;5048949;28;20504;-66
2023/05/01 08:28:19;;;;;;;11.35;3.60;;;19.60;93.60;;;;;;5000115;28;223663;-66
2023/05/01 08:30:47;;;;;;;12.82;3.67;;;19.60;93.00;;;;;;5063287;28;20068;-65
2023/05/01 08:33:14;;;;;;;9.30;3.55;;;19.60;93.10;;;;;;5004655;28;218060;-66
2023/05/01 08:35:40;;;;;;;11.68;3.40;;;19.70;93.60;;;;;;5031370;28;20071;-67
2023/05/01 08:38:06;;;;;;;10.50;3.92;;;20.00;92.50;;;;;;5033844;28;212736;-67
2023/05/01 08:40:36;;;;;;;12.45;3.25;;;20.10;92.70;;;;;;5048387;28;152643;-68
2023/05/01 08:43:04;;;;;;;10.50;3.33;;;19.70;91.60;;;;;;5043066;28;208024;-67
2023/05/01 08:45:36;;;;;;;12.05;3.40;;;19.50;91.50;;;;;;5040568;27;139550;-68
2023/05/01 08:48:06;;;;;;;10.18;3.42;;;19.70;91.50;;;;;;5063654;28;20052;-68
2023/05/01 08:50:37;;;;;;;12.93;3.20;;;19.90;91.20;;;;;;5029592;28;205051;-69
2023/05/01 08:53:05;;;;;;;12.43;3.20;;;20.20;90.70;;;;;;5044893;28;211517;-69
2023/05/01 08:55:33;;;;;;;9.45;3.17;;;20.20;90.30;;;;;;5012720;28;194031;-69
2023/05/01 08:58:01;;;;;;;9.27;2.95;;;20.20;89.30;;;;;;5062649;28;20088;-68
2023/05/01 09:00:27;;;;;;;10.18;3.40;;;20.30;90.20;;;;;;5002738;28;194165;-68
2023/05/01 09:02:55;;;;;;;11.73;3.30;;;21.00;90.70;;;;;;5056308;28;20616;-66
2023/05/01 09:05:21;;;;;;;14.50;3.67;;;21.60;89.60;;;;;;5018581;28;208031;-68
2023/05/01 09:07:47;;;;;;;10.18;3.55;;;21.80;86.40;;;;;;5065355;28;20048;-68
2023/05/01 09:10:16;;;;;;;11.77;3.38;;;22.10;87.00;;;;;;5023562;28;210937;-68
2023/05/01 09:12:46;;;;;;;10.95;3.20;;;22.60;87.10;;;;;;5078499;28;20505;-68
2023/05/01 09:15:12;;;;;;;11.10;3.20;;;23.20;86.60;;;;;;5019397;28;208737;-68
2023/05/01 09:17:39;;;;;;;13.63;3.58;;;23.10;86.70;;;;;;5088130;28;20062;-68
2023/05/01 09:20:06;;;;;;;9.70;3.15;;;23.20;85.50;;;;;;5014262;28;208263;-68
2023/05/01 09:22:34;;;;;;;13.50;3.17;;;23.50;85.00;;;;;;5083859;28;20142;-67
2023/05/01 09:25:00;;;;;;;15.50;3.25;;;24.00;85.20;;;;;;5028482;28;207910;-69
2023/05/01 09:27:27;;;;;;;10.00;3.20;;;24.50;85.10;;;;;;5079598;28;20044;-68
2023/05/01 09:29:53;;;;;;;12.80;3.30;;;25.00;82.50;;;;;;5014618;28;207188;-68
2023/05/01 09:32:26;;;;;;;9.90;3.00;;;25.00;81.50;;;;;;5073711;28;20418;-69
2023/05/01 09:34:54;;;;;;;12.48;3.20;;;24.80;80.70;;;;;;5011633;28;222111;-69
2023/05/01 09:37:29;;;;;;;11.45;3.40;;;24.90;77.10;;;;;;5071393;28;20045;-68
2023/05/01 09:40:08;;;;;;;14.40;3.60;;;25.00;79.80;;;;;;5008729;28;213736;-68
2023/05/01 09:42:38;;;;;;;13.05;3.17;;;25.60;77.70;;;;;;5073144;28;20060;-68
2023/05/01 09:45:12;;;;;;;10.90;3.40;;;25.40;76.90;;;;;;5001849;28;206548;-69
2023/05/01 09:47:38;;;;;;;9.95;2.92;;;25.20;78.20;;;;;;5076421;28;20048;-69
2023/05/01 09:50:05;;;;;;;15.35;3.20;;;25.50;78.10;;;;;;5003792;28;214572;-66
2023/05/01 09:52:34;;;;;;;12.07;2.92;;;25.90;77.10;;;;;;5082912;28;20509;-67
2023/05/01 09:55:17;;;;;;;17.45;3.17;;;25.80;76.00;;;;;;5026502;28;211993;-69
2023/05/01 09:57:45;;;;;;;14.15;3.22;;;25.90;73.10;;;;;;5094774;28;20036;-68
2023/05/01 10:00:14;;;;;;;10.38;2.80;;;26.20;74.10;;;;;;4986933;28;235607;-68
2023/05/01 10:02:44;;;;;;;10.95;2.67;;;25.90;73.30;;;;;;5074277;28;20446;-68
2023/05/01 10:05:11;;;;;;;12.68;2.85;;;26.10;71.10;;;;;;5012256;28;209391;-68
2023/05/01 10:07:38;;;;;;;12.45;2.60;;;25.30;70.90;;;;;;5077030;28;20052;-70
2023/05/01 10:10:20;;;;;;;11.23;2.70;;;25.40;71.00;;;;;;5028825;28;207190;-68
2023/05/01 10:12:47;;;;;;;10.48;3.00;;;25.10;70.40;;;;;;5080016;28;20517;-69
2023/05/01 10:15:14;;;;;;;12.63;3.03;;;25.60;72.00;;;;;;5013315;28;217836;-69
2023/05/01 10:17:42;;;;;;;12.73;2.97;;;26.40;72.90;;;;;;5080240;28;20051;-69
2023/05/01 10:20:11;;;;;;;8.73;2.35;;;27.20;72.40;;;;;;5018427;28;207579;-68
2023/05/01 10:22:38;;;;;;;10.82;2.60;;;27.40;69.00;;;;;;5077439;28;20044;-69
2023/05/01 10:25:10;;;;;;;10.77;2.42;;;27.30;70.50;;;;;;5009222;28;210070;-67
2023/05/01 10:27:40;;;;;;;8.25;1.50;;;27.20;70.90;;;;;;5080818;28;20051;-68
2023/05/01 10:30:07;;;;;;;6.75;1.73;;;27.20;71.10;;;;;;4988470;28;215760;-68
2023/05/01 10:32:35;;;;;;;8.35;2.15;;;27.40;70.50;;;;;;5065991;28;20052;-70
2023/05/01 10:35:14;;;;;;;11.13;2.15;;;27.90;71.40;;;;;;5036491;27;209092;-70
2023/05/01 10:37:55;;;;;;;6.38;1.58;;;27.60;68.70;;;;;;5076710;28;20114;-69
2023/05/01 10:40:43;;;;;;;9.05;1.60;;;27.60;67.10;;;;;;5015486;28;210720;-69
2023/05/01 10:43:16;;;;;;;6.43;1.55;;;26.70;66.30;;;;;;5031988;28;206089;-69
2023/05/01 10:45:47;;;;;;;6.80;2.00;;;26.40;69.30;;;;;;5074201;28;20063;-68
2023/05/01 10:48:40;;;;;;;7.38;2.00;;;26.20;66.00;;;;;;5020058;28;209402;-69
2023/05/01 10:51:14;;;;;;;8.45;1.40;;;25.70;67.10;;;;;;5063522;28;20060;-68
2023/05/01 10:53:41;;;;;;;7.40;1.63;;;25.40;65.30;;;;;;5000880;28;206714;-69
2023/05/01 10:56:26;;;;;;;7.72;1.30;;;24.70;67.20;;;;;;5052603;28;20067;-69
2023/05/01 10:58:52;;;;;;;6.65;1.60;;;24.40;66.40;;;;;;5003793;28;234415;-69
2023/05/01 11:01:33;;;;;;;7.28;1.70;;;24.30;67.60;;;;;;5068171;28;20044;-70
2023/05/01 11:04:26;;;;;;;6.05;1.50;;;23.50;66.20;;;;;;5011380;28;209837;-69
2023/05/01 11:07:03;;;;;;;7.95;1.50;;;22.60;66.90;;;;;;5069777;28;20048;-69
2023/05/01 11:09:49;;;;;;;10.60;2.10;;;22.40;68.30;;;;;;5029025;28;207564;-68
2023/05/01 11:12:44;;;;;;;6.47;1.52;;;22.90;68.90;;;;;;5074422;28;20051;-68
2023/05/01 11:15:12;;;;;;;7.03;1.38;;;24.00;70.00;;;;;;5014328;28;212652;-69
2023/05/01 11:17:41;;;;;;;7.80;1.75;;;24.10;68.20;;;;;;5056027;28;20052;-68
2023/05/01 11:20:09;;;;;;;7.63;1.52;;;23.30;68.20;;;;;;4988951;28;207272;-68
2023/05/01 11:22:37;;;;;;;7.22;1.88;;;22.50;67.40;;;;;;5058321;28;20510;-67
2023/05/01 11:25:16;;;;;;;7.18;1.70;;;22.30;70.30;;;;;;4983213;28;210044;-69
2023/05/01 11:27:53;;;;;;;6.87;1.47;;;22.80;69.40;;;;;;5051435;28;20060;-67
2023/05/01 11:30:19;;;;;;;6.47;1.50;;;22.70;68.60;;;;;;5006524;28;213156;-68
2023/05/01 11:32:48;;;;;;;5.68;1.40;;;22.20;67.80;;;;;;5069922;28;20049;-68
2023/05/01 11:35:28;;;;;;;9.18;1.90;;;21.80;68.40;;;;;;5008925;28;208058;-69
2023/05/01 11:37:55;;;;;;;8.80;2.03;;;21.50;70.60;;;;;;5058847;28;20625;-69
2023/05/01 11:40:23;;;;;;;6.88;1.90;;;20.70;70.00;;;;;;5034179;28;210557;-69
2023/05/01 11:42:51;;;;;;;6.60;1.70;;;20.60;70.90;;;;;;5076652;28;20052;-69
2023/05/01 11:45:18;;;;;;;6.40;1.50;;;21.10;72.30;;;;;;5002080;28;209054;-69
2023/05/01 11:47:44;;;;;;;7.53;1.70;;;21.50;70.60;;;;;;5063283;28;20057;-69
2023/05/01 11:50:11;;;;;;;6.85;1.70;;;21.50;70.40;;;;;;5002392;28;209968;-68
2023/05/01 11:52:47;;;;;;;7.25;1.60;;;21.80;69.80;;;;;;5066160;28;20033;-69
2023/05/01 11:55:13;;;;;;;7.07;1.42;;;22.20;70.90;;;;;;5010571;28;206935;-69
2023/05/01 11:57:52;;;;;;;7.32;1.70;;;22.60;71.20;;;;;;5061929;28;20044;-69
2023/05/01 12:00:25;;;;;;;5.82;1.50;;;22.70;69.40;;;;;;5024103;27;212641;-67
2023/05/01 12:03:01;;;;;;;7.47;1.60;;;21.80;70.30;;;;;;5061563;28;20053;-68
2023/05/01 12:05:29;;;;;;;6.10;1.50;;;21.70;69.10;;;;;;5007559;28;206618;-68
2023/05/01 12:08:08;;;;;;;5.90;1.45;;;20.80;69.80;;;;;;5072309;28;20047;-68
2023/05/01 12:10:35;;;;;;;6.53;1.80;;;21.30;70.60;;;;;;5020246;28;109370;-68
2023/05/01 12:13:03;;;;;;;5.78;1.73;;;21.40;70.80;;;;;;5080367;28;20451;-68
2023/05/01 12:15:30;;;;;;;8.00;1.90;;;21.30;71.90;;;;;;4993385;28;185647;-68
2023/05/01 12:17:57;;;;;;;7.75;1.98;;;21.20;72.00;;;;;;5078559;28;20068;-68
2023/05/01 12:20:38;;;;;;;7.53;1.90;;;21.20;73.60;;;;;;5015663;28;202727;-68
2023/05/01 12:23:05;;;;;;;8.35;1.80;;;21.50;73.80;;;;;;5063043;28;206525;-69
2023/05/01 12:25:33;;;;;;;8.95;2.13;;;21.40;73.70;;;;;;5018610;28;20056;-68
2023/05/01 12:28:08;;;;;;;7.40;1.90;;;21.40;73.70;;;;;;5079050;28;20052;-69
2023/05/01 12:30:35;;;;;;;6.93;1.60;;;21.60;74.70;;;;;;5008696;28;106145;-68
2023/05/01 12:33:15;;;;;;;8.10;1.52;;;21.50;73.80;;;;;;5076849;28;20055;-67
2023/05/01 12:35:45;;;;;;;7.50;1.55;;;21.30;73.90;;;;;;5009027;28;20055;-68
2023/05/01 12:38:16;;;;;;;8.80;1.83;;;21.20;74.90;;;;;;5020182;28;207400;-66
2023/05/01 12:41:12;;;;;;;7.45;1.70;;;21.20;74.10;;;;;;5066220;28;20063;-68
2023/05/01 12:43:38;;;;;;;5.95;1.40;;;21.20;74.30;;;;;;5028221;28;207592;-69
2023/05/01 12:46:05;;;;;;;6.35;1.63;;;21.00;74.00;;;;;;5074089;28;20052;-69